Luze — CURH9 — position and weather

sailwx.info

Track history (hours):
 
Tides and Currents Weather Stations Pressure Air Temp Water Temp Dewpoint Dewpoint Depression Visibility Wind Speed Wind Dir Waves Ship Positions

Luze

Last reported at 2018-Jun-11 14:27 UTC. Time now 2018-Jun-25 06:05 UTC.
Position N 37°32' W 009°07'.
Warning: this ship's position is 13 days out of date.

Length 20 m.

Type: Fishing. MMSI: 263500360.

Date/timePositionNaut miles runAvg speedWind from/ knotsBaromVisibWave heightAir tempDewpointWater temp
2018-Jun-11 14:27N 37°32' W 009°07'4 8.2
2018-Jun-11 14:00N 37°36' W 009°05'4 8.1
2018-Jun-11 13:30N 37°39' W 009°03'4 8.3
2018-Jun-11 13:00N 37°43' W 009°01'4 8.1
2018-Jun-11 12:30N 37°47' W 008°58'4 8.0
2018-Jun-11 12:00N 37°50' W 008°56'4 8.2
2018-Jun-11 11:30N 37°54' W 008°54'3 6.3
2018-Jun-11 11:00N 37°57' W 008°52'0 0.0
2018-Jun-11 10:30N 37°57' W 008°52'0 0.0
2018-Jun-11 09:59N 37°57' W 008°52'0 0.0
2018-Jun-11 09:29N 37°57' W 008°52'0 0.0
2018-Jun-11 09:00N 37°57' W 008°52'0 0.0
2018-Jun-11 08:30N 37°57' W 008°52'0 0.0
2018-Jun-11 08:00N 37°57' W 008°52'0 0.0
2018-Jun-11 07:30N 37°57' W 008°52'0 0.2
2018-Jun-11 07:00N 37°57' W 008°52'0 0.1
2018-Jun-11 06:30N 37°57' W 008°52'0 0.0
2018-Jun-11 06:00N 37°57' W 008°52'0 0.0
2018-Jun-11 05:30N 37°57' W 008°52'0 0.0
2018-Jun-11 05:00N 37°57' W 008°52'0 0.2
2018-Jun-11 04:30N 37°57' W 008°52'0 0.0
2018-Jun-11 04:00N 37°57' W 008°52'2 3.5
2018-Jun-11 03:30N 37°55' W 008°53'3 5.8
2018-Jun-11 03:00N 37°53' W 008°54'3 6.0
2018-Jun-11 02:30N 37°50' W 008°55'3 6.0
2018-Jun-11 02:00N 37°47' W 008°56'3 6.5
2018-Jun-11 01:30N 37°44' W 008°57'  
2018-Jun-07 14:31N 37°34' W 009°05'0 7.4
2018-Jun-07 14:30N 37°34' W 009°05'4 7.7
2018-Jun-07 13:59N 37°38' W 009°02'4 7.4
2018-Jun-07 13:30N 37°41' W 009°01'4 7.5
2018-Jun-07 13:01N 37°45' W 008°59'4 7.3
2018-Jun-07 12:30N 37°48' W 008°57'4 7.6
2018-Jun-07 12:00N 37°52' W 008°55'4 7.7
2018-Jun-07 11:31N 37°55' W 008°53'1 2.2
2018-Jun-07 11:00N 37°56' W 008°53'1 2.2
2018-Jun-07 10:30N 37°57' W 008°52'0 0.0
2018-Jun-07 10:01N 37°57' W 008°52'0 0.0
2018-Jun-07 09:31N 37°57' W 008°52'0 0.0
2018-Jun-07 09:01N 37°57' W 008°52'0 0.0
2018-Jun-07 08:31N 37°57' W 008°52'0 0.0
2018-Jun-07 08:00N 37°57' W 008°52'0 0.0
2018-Jun-07 07:31N 37°57' W 008°52'0 0.0
2018-Jun-07 07:01N 37°57' W 008°52'0 0.0
2018-Jun-07 06:30N 37°57' W 008°52'0 0.2
2018-Jun-07 06:01N 37°57' W 008°52'0 0.0
2018-Jun-07 05:31N 37°57' W 008°52'0 0.0
2018-Jun-07 05:01N 37°57' W 008°52'1 1.2
2018-Jun-07 04:30N 37°57' W 008°52'2 4.9
2018-Jun-07 04:00N 37°54' W 008°53'3 5.6
2018-Jun-07 03:31N 37°51' W 008°53'3 6.0
2018-Jun-07 03:01N 37°48' W 008°54'3 5.9
2018-Jun-07 02:30N 37°46' W 008°55'3 5.7
2018-Jun-07 02:00N 37°43' W 008°56'3 5.5
2018-Jun-07 01:30N 37°40' W 008°57'10 0.2
2018-Jun-05 00:28N 37°33' W 009°06'3 7.1
2018-Jun-05 00:00N 37°36' W 009°04'4 7.2
2018-Jun-04 23:30N 37°40' W 009°02'4 7.1
2018-Jun-04 23:00N 37°43' W 009°00'4 7.1
2018-Jun-04 22:30N 37°46' W 008°58'4 7.0
2018-Jun-04 22:00N 37°49' W 008°57'4 7.2
2018-Jun-04 21:30N 37°52' W 008°55'4 7.2
2018-Jun-04 21:00N 37°56' W 008°52'1 2.9
2018-Jun-04 20:30N 37°57' W 008°52'0 0.0
2018-Jun-04 20:00N 37°57' W 008°52'0 0.0
2018-Jun-04 19:30N 37°57' W 008°52'  
Track history (hours):
 
Tides and Currents Weather Stations Pressure Air Temp Water Temp Dewpoint Dewpoint Depression Visibility Wind Speed Wind Dir Waves Ship Positions

Luze

Last reported at 2018-Jun-11 14:27 UTC. Time now 2018-Jun-25 06:05 UTC.
Position N 37°32' W 009°07'.
Warning: this ship's position is 13 days out of date.

Length 20 m.

Type: Fishing. MMSI: 263500360.

Date/timePositionNaut miles runAvg speedWind from/ knotsBaromVisibWave heightAir tempDewpointWater temp
2018-Jun-11 14:27N 37°32' W 009°07'4 8.2
2018-Jun-11 14:00N 37°36' W 009°05'4 8.1
2018-Jun-11 13:30N 37°39' W 009°03'4 8.3
2018-Jun-11 13:00N 37°43' W 009°01'4 8.1
2018-Jun-11 12:30N 37°47' W 008°58'4 8.0
2018-Jun-11 12:00N 37°50' W 008°56'4 8.2
2018-Jun-11 11:30N 37°54' W 008°54'3 6.3
2018-Jun-11 11:00N 37°57' W 008°52'0 0.0
2018-Jun-11 10:30N 37°57' W 008°52'0 0.0
2018-Jun-11 09:59N 37°57' W 008°52'0 0.0
2018-Jun-11 09:29N 37°57' W 008°52'0 0.0
2018-Jun-11 09:00N 37°57' W 008°52'0 0.0
2018-Jun-11 08:30N 37°57' W 008°52'0 0.0
2018-Jun-11 08:00N 37°57' W 008°52'0 0.0
2018-Jun-11 07:30N 37°57' W 008°52'0 0.2
2018-Jun-11 07:00N 37°57' W 008°52'0 0.1
2018-Jun-11 06:30N 37°57' W 008°52'0 0.0
2018-Jun-11 06:00N 37°57' W 008°52'0 0.0
2018-Jun-11 05:30N 37°57' W 008°52'0 0.0
2018-Jun-11 05:00N 37°57' W 008°52'0 0.2
2018-Jun-11 04:30N 37°57' W 008°52'0 0.0
2018-Jun-11 04:00N 37°57' W 008°52'2 3.5
2018-Jun-11 03:30N 37°55' W 008°53'3 5.8
2018-Jun-11 03:00N 37°53' W 008°54'3 6.0
2018-Jun-11 02:30N 37°50' W 008°55'3 6.0
2018-Jun-11 02:00N 37°47' W 008°56'3 6.5
2018-Jun-11 01:30N 37°44' W 008°57'  
2018-Jun-07 14:31N 37°34' W 009°05'0 7.4
2018-Jun-07 14:30N 37°34' W 009°05'4 7.7
2018-Jun-07 13:59N 37°38' W 009°02'4 7.4
2018-Jun-07 13:30N 37°41' W 009°01'4 7.5
2018-Jun-07 13:01N 37°45' W 008°59'4 7.3
2018-Jun-07 12:30N 37°48' W 008°57'4 7.6
2018-Jun-07 12:00N 37°52' W 008°55'4 7.7
2018-Jun-07 11:31N 37°55' W 008°53'1 2.2
2018-Jun-07 11:00N 37°56' W 008°53'1 2.2
2018-Jun-07 10:30N 37°57' W 008°52'0 0.0
2018-Jun-07 10:01N 37°57' W 008°52'0 0.0
2018-Jun-07 09:31N 37°57' W 008°52'0 0.0
2018-Jun-07 09:01N 37°57' W 008°52'0 0.0
2018-Jun-07 08:31N 37°57' W 008°52'0 0.0
2018-Jun-07 08:00N 37°57' W 008°52'0 0.0
2018-Jun-07 07:31N 37°57' W 008°52'0 0.0
2018-Jun-07 07:01N 37°57' W 008°52'0 0.0
2018-Jun-07 06:30N 37°57' W 008°52'0 0.2
2018-Jun-07 06:01N 37°57' W 008°52'0 0.0
2018-Jun-07 05:31N 37°57' W 008°52'0 0.0
2018-Jun-07 05:01N 37°57' W 008°52'1 1.2
2018-Jun-07 04:30N 37°57' W 008°52'2 4.9
2018-Jun-07 04:00N 37°54' W 008°53'3 5.6
2018-Jun-07 03:31N 37°51' W 008°53'3 6.0
2018-Jun-07 03:01N 37°48' W 008°54'3 5.9
2018-Jun-07 02:30N 37°46' W 008°55'3 5.7
2018-Jun-07 02:00N 37°43' W 008°56'3 5.5
2018-Jun-07 01:30N 37°40' W 008°57'10 0.2
2018-Jun-05 00:28N 37°33' W 009°06'3 7.1
2018-Jun-05 00:00N 37°36' W 009°04'4 7.2
2018-Jun-04 23:30N 37°40' W 009°02'4 7.1
2018-Jun-04 23:00N 37°43' W 009°00'4 7.1
2018-Jun-04 22:30N 37°46' W 008°58'4 7.0
2018-Jun-04 22:00N 37°49' W 008°57'4 7.2
2018-Jun-04 21:30N 37°52' W 008°55'4 7.2
2018-Jun-04 21:00N 37°56' W 008°52'1 2.9
2018-Jun-04 20:30N 37°57' W 008°52'0 0.0
2018-Jun-04 20:00N 37°57' W 008°52'0 0.0
2018-Jun-04 19:30N 37°57' W 008°52'  

Dump ship's entire track history